Latest Weather Observations for Kalumburu

IDW60801

Issued at 2:04 pm WST Thursday 28 January 2021 (issued every 10 minutes, with the page automatically refreshed every 10 minutes)

About weather observations | Map of weather stations | Latest weather observations for WA | Other Formats
Station Details ID: 001019 Name: KALUMBURU Lat: -14.30 Lon: 126.65 Height: 23.0 m
Data from the previous 72 hours. | See also: Recent months at Kalumburu
Date/Time
WST
Temp
°C
App
Temp
°C
Dew
Point
°C
Rel
Hum
%
Delta-T
°C
Wind Press
QNH
hPa
Press
MSL
hPa
Rain since
9am
mm
Dir  Spd
km/h
Gust
km/h
Spd
kts
Gust
kts
28/02:00pm 26.2 27.0 23.1 83 2.1 NNW 24 44 13 24 1000.1 999.9 2.6
28/01:30pm 30.0 32.2 23.9 70 4.2 NW 19 28 10 15 1000.3 1000.1 2.0
28/01:00pm 29.5 32.9 25.3 78 3.0 NNW 17 24 9 13 1000.3 1000.1 2.0
28/12:30pm 28.4 32.0 25.6 85 2.0 N 17 24 9 13 1000.9 1000.7 2.0
28/12:00pm 27.9 31.6 25.1 85 2.0 NNW 15 20 8 11 1001.3 1001.1 2.0
28/11:30am 27.6 31.5 24.8 85 2.0 NNW 13 20 7 11 1001.9 1001.7 2.0
28/11:00am 25.9 28.6 24.1 90 1.2 NW 17 28 9 15 1002.3 1002.1 2.0
28/10:30am 29.7 32.5 23.6 69 4.2 NNW 15 22 8 12 1002.0 1001.8 0.0
28/10:00am 30.5 34.1 24.4 70 4.3 WNW 13 22 7 12 1002.5 1002.3 0.0
28/09:30am 29.3 32.4 23.5 71 4.0 NW 13 20 7 11 1002.6 1002.4 0.0
28/09:00am 29.3 33.1 24.0 73 3.7 WNW 11 15 6 8 1002.4 1002.2 6.8
28/08:30am 28.9 33.4 23.6 73 3.7 W 6 9 3 5 1002.5 1002.3 6.8
28/08:00am 27.9 32.5 24.1 80 2.6 SW 7 13 4 7 1002.9 1002.7 6.8
28/07:30am 26.9 31.7 24.5 87 1.7 WNW 7 11 4 6 1002.7 1002.5 6.8
28/07:00am 26.3 32.4 24.5 90 1.3 CALM 0 0 0 0 1002.6 1002.4 6.8
28/06:30am 25.5 31.3 24.6 95 0.6 WSW 2 6 1 3 1002.4 1002.2 6.8
28/06:00am 24.9 30.9 24.2 96 0.5 CALM 0 4 0 2 1001.8 1001.6 6.8
28/05:30am 24.5 30.1 23.6 95 0.6 CALM 0 0 0 0 1001.8 1001.6 6.8
28/05:00am 24.4 28.8 23.5 95 0.6 S 6 9 3 5 1001.4 1001.2 6.8
28/04:30am 24.4 29.1 23.4 94 0.7 SSW 4 9 2 5 1001.2 1001.0 6.8
28/04:00am 24.5 29.3 23.5 94 0.7 S 4 9 2 5 1000.9 1000.7 6.8
28/03:30am 24.6 30.3 23.7 95 0.6 CALM 0 0 0 0 1000.8 1000.6 6.8
28/03:00am 24.5 30.1 23.6 95 0.6 CALM 0 0 0 0 1000.7 1000.5 6.8
28/02:30am 24.4 29.0 23.2 93 0.8 WSW 4 11 2 6 1001.0 1000.8 6.8
28/02:00am 24.6 29.5 23.6 94 0.7 SSW 4 9 2 5 1000.8 1000.6 6.8
28/01:30am 24.9 30.7 24.0 95 0.6 CALM 0 0 0 0 1001.1 1000.9 6.8
28/01:00am 24.9 30.7 23.9 94 0.7 CALM 0 0 0 0 1001.3 1001.1 6.8
28/12:30am 25.1 30.7 24.2 95 0.6 WSW 2 6 1 3 1001.3 1001.1 6.8
28/12:00am 25.2 31.2 24.3 95 0.6 CALM 0 0 0 0 1001.7 1001.5 6.8
 
Date/Time
WST
Temp
°C
App
Temp
°C
Dew
Point
°C
Rel
Hum
%
Delta-T
°C
Wind Press
QNH
hPa
Press
MSL
hPa
Rain since
9am
mm
Dir  Spd
km/h
Gust
km/h
Spd
kts
Gust
kts
27/11:30pm 25.0 31.0 24.3 96 0.5 CALM 0 0 0 0 1001.7 1001.5 6.8
27/11:00pm 25.0 30.1 24.1 95 0.6 SE 4 7 2 4 1002.1 1001.9 6.8
27/10:30pm 24.8 30.6 23.9 95 0.6 CALM 0 0 0 0 1002.4 1002.2 6.8
27/10:00pm 24.6 29.0 23.4 93 0.8 NNW 6 9 3 5 1002.0 1001.8 6.8
27/09:30pm 25.4 31.2 24.5 95 0.6 SSW 2 7 1 4 1002.7 1002.5 5.6
27/09:00pm 25.3 30.6 24.4 95 0.6 S 4 7 2 4 1002.4 1002.2 5.0
27/08:30pm 25.4 31.5 24.4 94 0.7 CALM 0 0 0 0 1002.0 1001.8 5.0
27/08:00pm 25.2 31.2 24.2 94 0.7 CALM 0 0 0 0 1001.9 1001.7 5.0
27/07:30pm 25.1 31.0 24.1 94 0.7 CALM 0 0 0 0 1001.5 1001.3 5.0
27/07:00pm 25.2 31.0 24.0 93 0.8 CALM 0 0 0 0 1001.1 1000.9 4.8
27/06:30pm 25.2 31.0 24.0 93 0.8 CALM 0 0 0 0 1000.9 1000.7 4.8
27/06:00pm 25.2 29.9 24.0 93 0.8 SSE 6 7 3 4 1000.3 1000.1 4.8
27/05:30pm 25.4 31.4 24.2 93 0.8 CALM 0 0 0 0 1000.1 999.9 4.6
27/05:00pm 25.5 30.8 24.3 93 0.8 SE 4 7 2 4 1000.1 999.9 4.4
27/04:30pm 25.8 30.7 24.6 93 0.8 E 7 11 4 6 1000.3 1000.1 4.2
27/04:00pm 26.1 30.9 25.1 94 0.7 SE 9 13 5 7 1000.6 1000.4 4.0
27/03:30pm 26.2 31.5 25.2 94 0.7 ENE 7 9 4 5 999.9 999.7 4.0
27/03:00pm 26.2 31.3 24.6 91 1.1 ENE 6 7 3 4 1000.1 999.9 3.8
27/02:30pm 25.8 30.2 23.8 89 1.4 WSW 7 13 4 7 999.9 999.7 3.2
27/02:00pm 27.5 29.9 23.7 80 2.6 W 17 28 9 15 999.9 999.7 0.0
27/01:30pm 30.5 34.5 25.1 73 3.8 NNW 13 17 7 9 999.8 999.6 0.0
27/01:00pm 33.3 38.1 24.2 59 6.4 WNW 6 9 3 5 1000.0 999.8 0.0
27/12:30pm 33.1 39.1 26.4 68 4.8 SSE 7 13 4 7 1000.1 999.9 0.0
27/12:00pm 32.6 37.8 25.7 67 4.9 WSW 9 15 5 8 1000.6 1000.4 0.0
27/11:30am 31.5 36.7 25.1 69 4.5 S 7 13 4 7 1001.5 1001.3 0.0
27/11:00am 30.4 34.2 24.1 69 4.4 S 11 19 6 10 1001.9 1001.7 0.0
27/10:30am 29.6 33.4 23.5 69 4.2 SSW 9 17 5 9 1002.6 1002.4 0.0
27/10:00am 30.2 34.9 25.0 73 3.7 SSW 9 15 5 8 1002.8 1002.6 0.0
27/09:30am 28.9 32.3 24.0 75 3.4 S 13 20 7 11 1003.2 1003.0 0.0
27/09:00am 26.8 31.5 24.3 86 1.7 S 7 15 4 8 1003.6 1003.4 26.6
27/08:30am 26.8 31.6 24.5 87 1.6 SSW 7 13 4 7 1003.5 1003.3 26.6
27/08:00am 26.2 31.3 24.6 91 1.1 SW 6 9 3 5 1003.2 1003.0 26.6
27/07:30am 25.4 30.1 24.0 92 1.0 S 6 9 3 5 1003.0 1002.8 26.6
27/07:00am 25.3 31.5 24.6 96 0.5 CALM 0 0 0 0 1002.8 1002.6 26.6
27/06:30am 24.8 30.7 24.1 96 0.5 CALM 0 0 0 0 1002.7 1002.5 26.6
27/06:00am 24.5 30.2 23.8 96 0.5 CALM 0 0 0 0 1002.5 1002.3 26.6
27/05:30am 24.2 28.6 23.5 96 0.5 NW 6 9 3 5 1002.0 1001.8 26.6
27/05:00am 24.1 29.6 23.4 96 0.5 CALM 0 0 0 0 1001.7 1001.5 26.6
27/04:30am 23.8 29.1 23.0 95 0.5 CALM 0 0 0 0 1001.2 1001.0 26.6
27/04:00am 23.9 28.8 23.0 95 0.6 SSE 2 7 1 4 1001.1 1000.9 26.4
27/03:30am 23.9 28.5 23.2 96 0.5 SSE 4 9 2 5 1000.9 1000.7 26.4
27/03:00am 23.9 28.1 23.2 96 0.5 SSE 6 9 3 5 1001.2 1001.0 26.4
27/02:30am 24.0 28.1 23.3 96 0.5 S 7 11 4 6 1001.3 1001.1 26.4
27/02:00am 24.0 28.1 23.3 96 0.5 SSE 7 13 4 7 1001.3 1001.1 26.4
27/01:30am 24.0 28.7 23.3 96 0.5 SSW 4 9 2 5 1001.7 1001.5 26.4
27/01:00am 24.1 28.8 23.4 96 0.5 SE 4 7 2 4 1002.0 1001.8 26.4
27/12:30am 24.1 28.8 23.4 96 0.5 SSE 4 7 2 4 1002.3 1002.1 26.4
27/12:00am 24.1 29.5 23.2 95 0.6 CALM 0 0 0 0 1002.9 1002.7 26.4
 
Date/Time
WST
Temp
°C
App
Temp
°C
Dew
Point
°C
Rel
Hum
%
Delta-T
°C
Wind Press
QNH
hPa
Press
MSL
hPa
Rain since
9am
mm
Dir  Spd
km/h
Gust
km/h
Spd
kts
Gust
kts
26/11:30pm 24.1 29.2 23.4 96 0.5 WSW 2 9 1 5 1003.7 1003.5 26.2
26/11:00pm 24.2 28.4 23.5 96 0.5 SSW 7 13 4 7 1004.1 1003.9 25.8
26/10:30pm 24.1 28.8 23.4 96 0.5 SW 4 9 2 5 1004.6 1004.4 25.4
26/10:00pm 24.1 28.8 23.4 96 0.5 WSW 4 7 2 4 1004.4 1004.2 25.0
26/09:30pm 23.9 26.7 23.0 95 0.6 S 13 22 7 12 1003.9 1003.7 24.4
26/09:00pm 24.0 28.3 23.3 96 0.5 SE 6 9 3 5 1004.1 1003.9 23.2
26/08:30pm 24.0 28.0 23.1 95 0.6 SE 7 11 4 6 1003.4 1003.2 21.6
26/08:00pm 24.1 28.1 23.1 94 0.7 W 7 15 4 8 1003.8 1003.6 20.6
26/07:30pm 24.0 26.9 23.1 95 0.6 WSW 13 22 7 12 1003.3 1003.1 20.0
26/07:00pm 23.8 26.6 23.0 95 0.5 W 13 20 7 11 1002.1 1001.9 19.6
26/06:30pm 24.6 27.1 23.2 92 0.9 SW 15 30 8 16 1001.8 1001.6 16.2
26/06:00pm 24.5 29.1 23.8 96 0.5 SE 6 15 3 8 1000.9 1000.7 14.8
26/05:30pm 24.3 28.1 23.4 95 0.6 NNE 9 13 5 7 1000.1 999.9 14.8
26/05:00pm 24.2 25.4 22.1 88 1.4 ESE 19 32 10 17 1001.0 1000.8 5.8
26/04:58pm 24.5 25.9 21.8 85 1.8 ESE 17 32 9 17 1001.1 1000.9 3.6
26/04:30pm 29.5 32.0 23.2 69 4.3 S 15 33 8 18 999.9 999.7 0.0
26/04:00pm 32.1 35.5 25.2 67 4.9 NW 17 24 9 13 999.8 999.6 0.0
26/03:30pm 33.0 36.7 23.3 56 6.7 W 9 17 5 9 1000.0 999.8 0.0
26/03:00pm 34.7 39.2 24.6 55 7.2 W 9 15 5 8 999.9 999.7 0.0
26/02:30pm 34.2 38.6 24.5 57 6.8 W 9 17 5 9 1000.4 1000.2 0.0
26/02:00pm 34.1 39.5 25.2 59 6.3 WSW 6 15 3 8 1000.6 1000.4 0.0
26/01:30pm 33.2 37.8 24.7 61 6.0 S 9 17 5 9 1000.9 1000.7 0.0
26/01:00pm 33.6 38.2 24.8 60 6.2 S 9 15 5 8 1001.3 1001.1 0.0
26/12:30pm 32.7 36.0 23.9 60 6.1 S 13 20 7 11 1001.7 1001.5 0.0
26/12:00pm 32.6 38.4 26.6 70 4.3 SSW 9 15 5 8 1002.4 1002.2 0.0
26/11:30am 31.0 35.1 24.6 68 4.5 SSW 11 20 6 11 1002.8 1002.6 0.0
26/11:00am 30.6 35.8 25.7 75 3.5 S 9 13 5 7 1003.3 1003.1 0.0
26/10:30am 29.9 35.0 25.6 78 3.0 S 9 15 5 8 1003.9 1003.7 0.0
26/10:00am 29.7 34.3 24.8 75 3.4 S 9 15 5 8 1004.5 1004.3 0.0
26/09:30am 29.4 33.4 23.8 72 3.9 S 9 13 5 7 1004.8 1004.6 0.0
26/09:00am 29.0 35.3 24.8 78 2.9 CALM 0 0 0 0 1004.9 1004.7 3.2
26/08:30am 27.8 34.1 24.8 84 2.1 CALM 0 0 0 0 1005.0 1004.8 3.2
26/08:00am 27.1 33.4 24.7 87 1.7 CALM 0 0 0 0 1004.9 1004.7 3.2
26/07:30am 26.3 32.2 24.7 91 1.1 S 2 6 1 3 1004.9 1004.7 3.2
26/07:00am 25.9 32.3 24.9 94 0.7 CALM 0 0 0 0 1004.9 1004.7 3.2
26/06:30am 25.6 32.0 24.9 96 0.5 CALM 0 0 0 0 1004.7 1004.5 3.2
26/06:00am 24.9 30.5 24.2 96 0.5 S 2 7 1 4 1004.4 1004.2 3.2
26/05:30am 24.7 30.4 23.8 95 0.6 CALM 0 0 0 0 1003.9 1003.7 3.2
26/05:00am 24.6 30.3 23.7 95 0.6 CALM 0 0 0 0 1003.6 1003.4 3.2
26/04:30am 24.6 29.5 23.7 95 0.6 ESE 4 6 2 3 1003.4 1003.2 3.2
26/04:00am 24.6 30.4 23.9 96 0.5 CALM 0 0 0 0 1003.2 1003.0 3.2
26/03:30am 24.4 30.0 23.5 95 0.6 CALM 0 0 0 0 1003.1 1002.9 3.2
26/03:00am 24.4 30.0 23.5 95 0.6 CALM 0 0 0 0 1003.0 1002.8 3.2
26/02:30am 24.2 29.6 23.3 95 0.6 CALM 0 0 0 0 1003.1 1002.9 3.2
26/02:00am 24.4 30.0 23.5 95 0.6 CALM 0 0 0 0 1003.2 1003.0 3.2
26/01:30am 24.4 30.0 23.5 95 0.6 CALM 0 0 0 0 1003.4 1003.2 3.2
26/01:00am 24.3 29.8 23.4 95 0.6 CALM 0 0 0 0 1003.7 1003.5 3.2
26/12:30am 24.4 30.0 23.5 95 0.6 CALM 0 0 0 0 1004.3 1004.1 3.2
26/12:00am 24.4 30.0 23.5 95 0.6 CALM 0 0 0 0 1004.4 1004.2 3.2
 
Date/Time
WST
Temp
°C
App
Temp
°C
Dew
Point
°C
Rel
Hum
%
Delta-T
°C
Wind Press
QNH
hPa
Press
MSL
hPa
Rain since
9am
mm
Dir  Spd
km/h
Gust
km/h
Spd
kts
Gust
kts
25/11:30pm 24.4 29.6 23.5 95 0.6 SSE 2 6 1 3 1004.9 1004.7 3.2
25/11:00pm 24.4 30.0 23.5 95 0.6 CALM 0 0 0 0 1005.6 1005.4 3.2
25/10:30pm 24.4 30.0 23.5 95 0.6 CALM 0 0 0 0 1005.8 1005.6 3.2
25/10:00pm 24.3 29.7 23.3 94 0.7 CALM 0 0 0 0 1005.9 1005.7 3.2
25/09:30pm 24.3 29.7 23.3 94 0.7 CALM 0 6 0 3 1006.2 1006.0 3.2
25/09:00pm 24.3 28.5 23.4 95 0.6 WNW 7 9 4 5 1006.6 1006.4 3.0
25/08:30pm 24.2 29.3 23.3 95 0.6 WNW 2 7 1 4 1006.0 1005.8 3.0
25/08:00pm 24.0 28.1 23.0 94 0.7 S 6 9 3 5 1005.3 1005.1 3.0
25/07:30pm 24.1 28.3 23.1 94 0.7 S 6 9 3 5 1004.9 1004.7 3.0
25/07:00pm 24.0 27.8 22.8 93 0.8 S 7 11 4 6 1004.9 1004.7 2.4
25/06:30pm 24.0 27.2 23.0 94 0.7 ESE 11 17 6 9 1004.8 1004.6 1.8
25/06:00pm 24.1 27.2 22.9 93 0.8 S 11 20 6 11 1004.8 1004.6 1.2
25/05:30pm 24.3 26.0 22.4 89 1.3 SSE 17 28 9 15 1004.6 1004.4 0.0
25/05:00pm 28.7 35.5 26.1 86 1.9 WSW 2 15 1 8 1003.1 1002.9 0.0
25/04:30pm 29.3 34.9 25.7 81 2.5 WNW 7 13 4 7 1002.2 1002.0 0.0
25/04:00pm 29.6 34.7 25.6 79 2.8 WNW 9 17 5 9 1002.1 1001.9 0.0
25/03:30pm 29.9 34.0 25.2 76 3.3 NW 13 17 7 9 1001.9 1001.7 0.0
25/03:00pm 30.2 34.6 25.0 73 3.7 WNW 11 19 6 10 1001.6 1001.4 0.0
25/02:30pm 30.6 34.4 24.7 71 4.1 WNW 13 24 7 13 1001.8 1001.6 0.0

Other formats

Comma delimited format used in spreadsheet applications
http://www.bom.gov.au/fwo/IDW60801/IDW60801.94100.axf

JavaScript Object Notation format (JSON) in row-major order
http://www.bom.gov.au/fwo/IDW60801/IDW60801.94100.json

Data quality

Most of these data are generated automatically and are frequently updated. Quality checks on data are not normally performed. It is possible for incorrect values to appear. Refer to information at About Latest Weather Observations and please check the disclaimer before using these data.